sensor_id;sensor_type;location;lat;lon;timestamp;P1;durP1;ratioP1;P2;durP2;ratioP2
17504;SDS011;8870;50.950;11.762;2024-02-23T00:03:19;1.05;;;0.20;;
17504;SDS011;8870;50.950;11.762;2024-02-23T00:08:38;0.80;;;0.10;;
17504;SDS011;8870;50.950;11.762;2024-02-23T00:14:11;2.03;;;0.20;;
17504;SDS011;8870;50.950;11.762;2024-02-23T00:19:30;0.38;;;0.15;;
17504;SDS011;8870;50.950;11.762;2024-02-23T00:25:01;0.40;;;0.20;;
17504;SDS011;8870;50.950;11.762;2024-02-23T00:30:23;0.10;;;0.10;;
17504;SDS011;8870;50.950;11.762;2024-02-23T00:35:54;0.80;;;0.20;;
17504;SDS011;8870;50.950;11.762;2024-02-23T00:41:13;0.70;;;0.10;;
17504;SDS011;8870;50.950;11.762;2024-02-23T00:46:46;0.30;;;0.10;;
17504;SDS011;8870;50.950;11.762;2024-02-23T00:52:05;1.38;;;0.20;;
17504;SDS011;8870;50.950;11.762;2024-02-23T00:57:37;1.10;;;0.20;;
17504;SDS011;8870;50.950;11.762;2024-02-23T01:02:58;1.10;;;0.17;;
17504;SDS011;8870;50.950;11.762;2024-02-23T01:08:30;0.20;;;0.20;;
17504;SDS011;8870;50.950;11.762;2024-02-23T01:13:49;1.45;;;0.30;;
17504;SDS011;8870;50.950;11.762;2024-02-23T01:19:22;1.95;;;0.20;;
17504;SDS011;8870;50.950;11.762;2024-02-23T01:24:41;0.80;;;0.20;;
17504;SDS011;8870;50.950;11.762;2024-02-23T01:30:12;1.23;;;0.20;;
17504;SDS011;8870;50.950;11.762;2024-02-23T01:35:32;0.28;;;0.20;;
17504;SDS011;8870;50.950;11.762;2024-02-23T01:41:03;0.20;;;0.10;;
17504;SDS011;8870;50.950;11.762;2024-02-23T01:46:22;0.30;;;0.10;;
17504;SDS011;8870;50.950;11.762;2024-02-23T01:51:55;0.52;;;0.10;;
17504;SDS011;8870;50.950;11.762;2024-02-23T01:57:14;0.55;;;0.10;;
17504;SDS011;8870;50.950;11.762;2024-02-23T02:03:04;0.40;;;0.20;;
17504;SDS011;8870;50.950;11.762;2024-02-23T02:08:24;0.20;;;0.10;;
17504;SDS011;8870;50.950;11.762;2024-02-23T02:13:57;0.82;;;0.20;;
17504;SDS011;8870;50.950;11.762;2024-02-23T02:19:15;1.92;;;0.30;;
17504;SDS011;8870;50.950;11.762;2024-02-23T02:24:48;1.20;;;0.40;;
17504;SDS011;8870;50.950;11.762;2024-02-23T02:30:14;0.57;;;0.20;;
17504;SDS011;8870;50.950;11.762;2024-02-23T02:35:45;0.93;;;0.20;;
17504;SDS011;8870;50.950;11.762;2024-02-23T02:41:06;1.67;;;0.20;;
17504;SDS011;8870;50.950;11.762;2024-02-23T02:46:40;0.40;;;0.30;;
17504;SDS011;8870;50.950;11.762;2024-02-23T02:51:58;0.52;;;0.30;;
17504;SDS011;8870;50.950;11.762;2024-02-23T02:57:33;1.48;;;0.40;;
17504;SDS011;8870;50.950;11.762;2024-02-23T03:02:52;0.73;;;0.35;;
17504;SDS011;8870;50.950;11.762;2024-02-23T03:08:24;0.45;;;0.32;;
17504;SDS011;8870;50.950;11.762;2024-02-23T03:13:44;1.17;;;0.30;;
17504;SDS011;8870;50.950;11.762;2024-02-23T03:19:16;0.38;;;0.20;;
17504;SDS011;8870;50.950;11.762;2024-02-23T03:24:37;1.10;;;0.25;;
17504;SDS011;8870;50.950;11.762;2024-02-23T03:30:04;0.25;;;0.20;;
17504;SDS011;8870;50.950;11.762;2024-02-23T03:35:30;0.52;;;0.30;;
17504;SDS011;8870;50.950;11.762;2024-02-23T03:41:01;1.07;;;0.30;;
17504;SDS011;8870;50.950;11.762;2024-02-23T03:46:34;0.77;;;0.30;;
17504;SDS011;8870;50.950;11.762;2024-02-23T03:51:53;0.90;;;0.38;;
17504;SDS011;8870;50.950;11.762;2024-02-23T03:57:24;0.20;;;0.17;;
17504;SDS011;8870;50.950;11.762;2024-02-23T04:02:44;0.30;;;0.20;;
17504;SDS011;8870;50.950;11.762;2024-02-23T04:08:16;1.15;;;0.50;;
17504;SDS011;8870;50.950;11.762;2024-02-23T04:13:34;0.20;;;0.10;;
17504;SDS011;8870;50.950;11.762;2024-02-23T04:19:09;0.35;;;0.30;;
17504;SDS011;8870;50.950;11.762;2024-02-23T04:24:28;2.97;;;0.47;;
17504;SDS011;8870;50.950;11.762;2024-02-23T04:29:59;0.90;;;0.30;;
17504;SDS011;8870;50.950;11.762;2024-02-23T04:35:19;1.30;;;0.38;;
17504;SDS011;8870;50.950;11.762;2024-02-23T04:40:51;0.82;;;0.30;;
17504;SDS011;8870;50.950;11.762;2024-02-23T04:46:09;2.20;;;0.30;;
17504;SDS011;8870;50.950;11.762;2024-02-23T04:51:42;1.60;;;0.30;;
17504;SDS011;8870;50.950;11.762;2024-02-23T04:57:01;1.25;;;0.40;;
17504;SDS011;8870;50.950;11.762;2024-02-23T05:02:32;0.80;;;0.32;;
17504;SDS011;8870;50.950;11.762;2024-02-23T05:07:52;1.20;;;0.40;;
17504;SDS011;8870;50.950;11.762;2024-02-23T05:13:24;2.15;;;0.30;;
17504;SDS011;8870;50.950;11.762;2024-02-23T05:18:42;1.10;;;0.30;;
17504;SDS011;8870;50.950;11.762;2024-02-23T05:24:16;0.70;;;0.20;;
17504;SDS011;8870;50.950;11.762;2024-02-23T05:29:35;0.60;;;0.30;;
17504;SDS011;8870;50.950;11.762;2024-02-23T05:35:06;0.77;;;0.25;;
17504;SDS011;8870;50.950;11.762;2024-02-23T05:40:26;1.10;;;0.30;;
17504;SDS011;8870;50.950;11.762;2024-02-23T05:45:58;0.57;;;0.20;;
17504;SDS011;8870;50.950;11.762;2024-02-23T05:51:16;0.77;;;0.30;;
17504;SDS011;8870;50.950;11.762;2024-02-23T05:56:49;0.73;;;0.22;;
17504;SDS011;8870;50.950;11.762;2024-02-23T06:02:08;0.60;;;0.30;;
17504;SDS011;8870;50.950;11.762;2024-02-23T06:07:39;1.13;;;0.30;;
17504;SDS011;8870;50.950;11.762;2024-02-23T06:12:59;0.20;;;0.20;;
17504;SDS011;8870;50.950;11.762;2024-02-23T06:18:31;0.30;;;0.20;;
17504;SDS011;8870;50.950;11.762;2024-02-23T06:23:49;0.40;;;0.22;;
17504;SDS011;8870;50.950;11.762;2024-02-23T06:29:22;1.08;;;0.25;;
17504;SDS011;8870;50.950;11.762;2024-02-23T06:34:41;1.05;;;0.20;;
17504;SDS011;8870;50.950;11.762;2024-02-23T06:40:15;0.30;;;0.20;;
17504;SDS011;8870;50.950;11.762;2024-02-23T06:45:43;0.35;;;0.20;;
17504;SDS011;8870;50.950;11.762;2024-02-23T06:51:15;1.13;;;0.30;;
17504;SDS011;8870;50.950;11.762;2024-02-23T06:56:35;1.05;;;0.35;;
17504;SDS011;8870;50.950;11.762;2024-02-23T07:02:09;1.73;;;0.35;;
17504;SDS011;8870;50.950;11.762;2024-02-23T07:07:28;1.25;;;0.30;;
17504;SDS011;8870;50.950;11.762;2024-02-23T07:13:02;3.38;;;0.47;;
17504;SDS011;8870;50.950;11.762;2024-02-23T07:18:23;1.88;;;0.20;;
17504;SDS011;8870;50.950;11.762;2024-02-23T07:23:55;1.85;;;0.38;;
17504;SDS011;8870;50.950;11.762;2024-02-23T07:29:13;0.63;;;0.40;;
17504;SDS011;8870;50.950;11.762;2024-02-23T07:34:46;1.67;;;0.38;;
17504;SDS011;8870;50.950;11.762;2024-02-23T07:40:05;1.00;;;0.50;;
17504;SDS011;8870;50.950;11.762;2024-02-23T07:45:38;1.30;;;0.47;;
17504;SDS011;8870;50.950;11.762;2024-02-23T07:50:59;1.38;;;0.50;;
17504;SDS011;8870;50.950;11.762;2024-02-23T07:56:31;1.73;;;0.40;;
17504;SDS011;8870;50.950;11.762;2024-02-23T08:01:49;1.52;;;0.60;;
17504;SDS011;8870;50.950;11.762;2024-02-23T08:07:22;0.85;;;0.52;;
17504;SDS011;8870;50.950;11.762;2024-02-23T08:12:43;2.78;;;0.70;;
17504;SDS011;8870;50.950;11.762;2024-02-23T08:18:14;1.42;;;0.60;;
17504;SDS011;8870;50.950;11.762;2024-02-23T08:23:34;1.20;;;0.60;;
17504;SDS011;8870;50.950;11.762;2024-02-23T08:29:06;1.95;;;0.60;;
17504;SDS011;8870;50.950;11.762;2024-02-23T08:34:24;2.10;;;0.40;;
17504;SDS011;8870;50.950;11.762;2024-02-23T08:39:58;1.10;;;0.57;;
17504;SDS011;8870;50.950;11.762;2024-02-23T08:45:18;2.28;;;0.70;;
17504;SDS011;8870;50.950;11.762;2024-02-23T08:50:49;0.70;;;0.30;;
17504;SDS011;8870;50.950;11.762;2024-02-23T08:56:09;2.10;;;0.40;;
17504;SDS011;8870;50.950;11.762;2024-02-23T09:01:43;1.48;;;0.47;;
17504;SDS011;8870;50.950;11.762;2024-02-23T09:07:01;1.88;;;0.43;;
17504;SDS011;8870;50.950;11.762;2024-02-23T09:12:34;3.35;;;0.50;;
17504;SDS011;8870;50.950;11.762;2024-02-23T09:17:53;2.72;;;0.70;;
17504;SDS011;8870;50.950;11.762;2024-02-23T09:23:24;2.00;;;0.63;;
17504;SDS011;8870;50.950;11.762;2024-02-23T09:28:44;1.33;;;0.40;;
17504;SDS011;8870;50.950;11.762;2024-02-23T09:34:16;3.22;;;0.60;;
17504;SDS011;8870;50.950;11.762;2024-02-23T09:39:47;1.73;;;0.50;;
17504;SDS011;8870;50.950;11.762;2024-02-23T09:45:08;1.52;;;0.40;;
17504;SDS011;8870;50.950;11.762;2024-02-23T09:50:42;1.30;;;0.80;;
17504;SDS011;8870;50.950;11.762;2024-02-23T09:56:03;2.95;;;0.63;;
17504;SDS011;8870;50.950;11.762;2024-02-23T10:01:41;2.70;;;0.82;;
17504;SDS011;8870;50.950;11.762;2024-02-23T10:07:00;3.78;;;0.63;;
17504;SDS011;8870;50.950;11.762;2024-02-23T10:12:31;1.52;;;0.47;;
17504;SDS011;8870;50.950;11.762;2024-02-23T10:17:53;2.58;;;0.52;;
17504;SDS011;8870;50.950;11.762;2024-02-23T10:23:25;2.45;;;0.50;;
17504;SDS011;8870;50.950;11.762;2024-02-23T10:28:45;1.83;;;0.60;;
17504;SDS011;8870;50.950;11.762;2024-02-23T10:34:19;1.90;;;0.60;;
17504;SDS011;8870;50.950;11.762;2024-02-23T10:39:47;0.95;;;0.50;;
17504;SDS011;8870;50.950;11.762;2024-02-23T10:45:22;1.63;;;0.45;;
17504;SDS011;8870;50.950;11.762;2024-02-23T10:50:43;3.30;;;0.70;;
17504;SDS011;8870;50.950;11.762;2024-02-23T10:56:14;1.95;;;0.70;;
17504;SDS011;8870;50.950;11.762;2024-02-23T11:01:32;1.40;;;0.50;;
17504;SDS011;8870;50.950;11.762;2024-02-23T11:07:13;1.65;;;0.57;;
17504;SDS011;8870;50.950;11.762;2024-02-23T11:12:33;2.00;;;0.55;;
17504;SDS011;8870;50.950;11.762;2024-02-23T11:18:05;1.90;;;0.60;;
17504;SDS011;8870;50.950;11.762;2024-02-23T11:23:47;3.33;;;0.70;;
17504;SDS011;8870;50.950;11.762;2024-02-23T11:29:19;2.28;;;0.77;;
17504;SDS011;8870;50.950;11.762;2024-02-23T11:34:37;1.75;;;0.52;;
17504;SDS011;8870;50.950;11.762;2024-02-23T11:40:13;0.98;;;0.43;;
17504;SDS011;8870;50.950;11.762;2024-02-23T11:45:32;1.60;;;0.68;;
17504;SDS011;8870;50.950;11.762;2024-02-23T11:51:03;4.00;;;0.80;;
17504;SDS011;8870;50.950;11.762;2024-02-23T11:56:24;3.80;;;0.65;;
17504;SDS011;8870;50.950;11.762;2024-02-23T12:01:56;1.75;;;0.70;;
17504;SDS011;8870;50.950;11.762;2024-02-23T12:07:15;1.60;;;0.68;;
17504;SDS011;8870;50.950;11.762;2024-02-23T12:12:50;1.70;;;0.70;;
17504;SDS011;8870;50.950;11.762;2024-02-23T12:18:10;3.15;;;0.85;;
17504;SDS011;8870;50.950;11.762;2024-02-23T12:23:42;4.68;;;0.60;;
17504;SDS011;8870;50.950;11.762;2024-02-23T12:29:04;1.75;;;0.70;;
17504;SDS011;8870;50.950;11.762;2024-02-23T12:34:36;2.20;;;0.60;;
17504;SDS011;8870;50.950;11.762;2024-02-23T12:40:07;2.43;;;0.50;;
17504;SDS011;8870;50.950;11.762;2024-02-23T12:45:29;2.70;;;0.60;;
17504;SDS011;8870;50.950;11.762;2024-02-23T12:51:00;1.45;;;0.50;;
17504;SDS011;8870;50.950;11.762;2024-02-23T12:56:18;2.20;;;0.70;;
17504;SDS011;8870;50.950;11.762;2024-02-23T13:01:51;3.35;;;0.63;;
17504;SDS011;8870;50.950;11.762;2024-02-23T13:07:10;2.15;;;0.80;;
17504;SDS011;8870;50.950;11.762;2024-02-23T13:12:45;1.63;;;0.55;;
17504;SDS011;8870;50.950;11.762;2024-02-23T13:18:07;0.88;;;0.40;;
17504;SDS011;8870;50.950;11.762;2024-02-23T13:23:38;2.50;;;0.60;;
17504;SDS011;8870;50.950;11.762;2024-02-23T13:29:06;4.13;;;0.50;;
17504;SDS011;8870;50.950;11.762;2024-02-23T13:34:39;1.08;;;0.40;;
17504;SDS011;8870;50.950;11.762;2024-02-23T13:40:14;2.30;;;0.80;;
17504;SDS011;8870;50.950;11.762;2024-02-23T13:45:32;0.85;;;0.50;;
17504;SDS011;8870;50.950;11.762;2024-02-23T13:51:06;1.05;;;0.57;;
17504;SDS011;8870;50.950;11.762;2024-02-23T13:56:24;1.75;;;0.73;;
17504;SDS011;8870;50.950;11.762;2024-02-23T14:01:55;2.83;;;0.68;;
17504;SDS011;8870;50.950;11.762;2024-02-23T14:07:16;2.22;;;0.70;;
17504;SDS011;8870;50.950;11.762;2024-02-23T14:12:47;1.25;;;0.55;;
17504;SDS011;8870;50.950;11.762;2024-02-23T14:18:06;0.90;;;0.50;;
17504;SDS011;8870;50.950;11.762;2024-02-23T14:23:40;1.80;;;0.63;;
17504;SDS011;8870;50.950;11.762;2024-02-23T14:28:58;1.58;;;0.60;;
17504;SDS011;8870;50.950;11.762;2024-02-23T14:34:30;1.15;;;0.60;;
17504;SDS011;8870;50.950;11.762;2024-02-23T14:40:04;2.80;;;0.73;;
17504;SDS011;8870;50.950;11.762;2024-02-23T14:45:23;1.45;;;0.60;;
17504;SDS011;8870;50.950;11.762;2024-02-23T14:50:54;1.63;;;0.70;;
17504;SDS011;8870;50.950;11.762;2024-02-23T14:56:15;3.17;;;0.70;;
17504;SDS011;8870;50.950;11.762;2024-02-23T15:01:47;3.00;;;0.73;;
17504;SDS011;8870;50.950;11.762;2024-02-23T15:07:05;2.47;;;0.70;;
17504;SDS011;8870;50.950;11.762;2024-02-23T15:12:42;3.00;;;0.50;;
17504;SDS011;8870;50.950;11.762;2024-02-23T15:18:00;3.75;;;0.75;;
17504;SDS011;8870;50.950;11.762;2024-02-23T15:23:31;3.03;;;0.70;;
17504;SDS011;8870;50.950;11.762;2024-02-23T15:28:52;1.20;;;0.60;;
17504;SDS011;8870;50.950;11.762;2024-02-23T15:34:25;2.53;;;0.80;;
17504;SDS011;8870;50.950;11.762;2024-02-23T15:39:56;3.20;;;0.70;;
17504;SDS011;8870;50.950;11.762;2024-02-23T15:45:17;3.05;;;0.90;;
17504;SDS011;8870;50.950;11.762;2024-02-23T15:50:48;2.85;;;0.80;;
17504;SDS011;8870;50.950;11.762;2024-02-23T15:56:26;2.55;;;1.15;;
17504;SDS011;8870;50.950;11.762;2024-02-23T16:01:47;2.80;;;1.33;;
17504;SDS011;8870;50.950;11.762;2024-02-23T16:07:20;2.90;;;1.40;;
17504;SDS011;8870;50.950;11.762;2024-02-23T16:12:38;3.13;;;1.45;;
17504;SDS011;8870;50.950;11.762;2024-02-23T16:18:12;2.80;;;1.20;;
17504;SDS011;8870;50.950;11.762;2024-02-23T16:23:31;2.65;;;1.00;;
17504;SDS011;8870;50.950;11.762;2024-02-23T16:29:02;2.83;;;1.33;;
17504;SDS011;8870;50.950;11.762;2024-02-23T16:34:37;2.80;;;1.10;;
17504;SDS011;8870;50.950;11.762;2024-02-23T16:39:55;2.53;;;1.00;;
17504;SDS011;8870;50.950;11.762;2024-02-23T16:45:26;1.50;;;0.70;;
17504;SDS011;8870;50.950;11.762;2024-02-23T16:50:48;1.75;;;0.70;;
17504;SDS011;8870;50.950;11.762;2024-02-23T16:56:21;2.28;;;0.70;;
17504;SDS011;8870;50.950;11.762;2024-02-23T17:01:40;3.15;;;0.75;;
17504;SDS011;8870;50.950;11.762;2024-02-23T17:07:16;2.00;;;0.63;;
17504;SDS011;8870;50.950;11.762;2024-02-23T17:12:34;2.00;;;0.70;;
17504;SDS011;8870;50.950;11.762;2024-02-23T17:18:07;1.90;;;0.80;;
17504;SDS011;8870;50.950;11.762;2024-02-23T17:23:28;1.88;;;0.80;;
17504;SDS011;8870;50.950;11.762;2024-02-23T17:28:59;2.50;;;0.70;;
17504;SDS011;8870;50.950;11.762;2024-02-23T17:34:32;1.92;;;0.80;;
17504;SDS011;8870;50.950;11.762;2024-02-23T17:39:53;1.95;;;0.60;;
17504;SDS011;8870;50.950;11.762;2024-02-23T17:45:25;1.15;;;0.70;;
17504;SDS011;8870;50.950;11.762;2024-02-23T17:50:43;1.15;;;0.60;;
17504;SDS011;8870;50.950;11.762;2024-02-23T17:56:17;1.73;;;0.80;;
17504;SDS011;8870;50.950;11.762;2024-02-23T18:01:35;3.70;;;0.80;;
17504;SDS011;8870;50.950;11.762;2024-02-23T18:07:07;1.30;;;0.50;;
17504;SDS011;8870;50.950;11.762;2024-02-23T18:12:28;1.30;;;0.70;;
17504;SDS011;8870;50.950;11.762;2024-02-23T18:17:59;1.77;;;0.75;;
17504;SDS011;8870;50.950;11.762;2024-02-23T18:28:54;5.68;;;1.10;;
17504;SDS011;8870;50.950;11.762;2024-02-23T18:34:26;2.17;;;0.90;;
17504;SDS011;8870;50.950;11.762;2024-02-23T18:39:55;3.92;;;2.33;;
17504;SDS011;8870;50.950;11.762;2024-02-23T18:45:30;3.88;;;1.40;;
17504;SDS011;8870;50.950;11.762;2024-02-23T18:50:49;1.77;;;1.00;;
17504;SDS011;8870;50.950;11.762;2024-02-23T19:07:19;3.13;;;1.17;;
17504;SDS011;8870;50.950;11.762;2024-02-23T19:12:38;2.42;;;1.20;;
17504;SDS011;8870;50.950;11.762;2024-02-23T19:18:13;3.33;;;0.95;;
17504;SDS011;8870;50.950;11.762;2024-02-23T19:23:41;2.97;;;1.13;;
17504;SDS011;8870;50.950;11.762;2024-02-23T19:29:13;4.03;;;1.50;;
17504;SDS011;8870;50.950;11.762;2024-02-23T19:40:10;4.43;;;1.30;;
17504;SDS011;8870;50.950;11.762;2024-02-23T19:45:43;3.72;;;1.17;;
17504;SDS011;8870;50.950;11.762;2024-02-23T19:51:20;3.63;;;0.90;;
17504;SDS011;8870;50.950;11.762;2024-02-23T19:56:54;2.50;;;1.17;;
17504;SDS011;8870;50.950;11.762;2024-02-23T20:02:12;2.63;;;1.10;;
17504;SDS011;8870;50.950;11.762;2024-02-23T20:07:47;2.90;;;1.20;;
17504;SDS011;8870;50.950;11.762;2024-02-23T20:13:06;2.40;;;1.00;;
17504;SDS011;8870;50.950;11.762;2024-02-23T20:18:39;1.45;;;1.08;;
17504;SDS011;8870;50.950;11.762;2024-02-23T20:24:00;2.08;;;1.02;;
17504;SDS011;8870;50.950;11.762;2024-02-23T20:29:31;1.60;;;0.82;;
17504;SDS011;8870;50.950;11.762;2024-02-23T20:34:55;2.15;;;0.90;;
17504;SDS011;8870;50.950;11.762;2024-02-23T20:40:32;2.10;;;0.90;;
17504;SDS011;8870;50.950;11.762;2024-02-23T20:45:51;3.97;;;1.00;;
17504;SDS011;8870;50.950;11.762;2024-02-23T20:51:23;2.00;;;0.77;;
17504;SDS011;8870;50.950;11.762;2024-02-23T20:56:44;2.00;;;1.00;;
17504;SDS011;8870;50.950;11.762;2024-02-23T21:02:15;1.98;;;0.90;;
17504;SDS011;8870;50.950;11.762;2024-02-23T21:07:37;1.85;;;0.93;;
17504;SDS011;8870;50.950;11.762;2024-02-23T21:13:11;2.05;;;0.82;;
17504;SDS011;8870;50.950;11.762;2024-02-23T21:18:34;1.67;;;0.93;;
17504;SDS011;8870;50.950;11.762;2024-02-23T21:24:07;1.55;;;0.90;;
17504;SDS011;8870;50.950;11.762;2024-02-23T21:29:33;1.63;;;0.90;;
17504;SDS011;8870;50.950;11.762;2024-02-23T21:35:07;2.40;;;0.80;;
17504;SDS011;8870;50.950;11.762;2024-02-23T21:40:28;1.73;;;0.90;;
17504;SDS011;8870;50.950;11.762;2024-02-23T21:46:02;1.75;;;0.90;;
17504;SDS011;8870;50.950;11.762;2024-02-23T21:51:23;2.47;;;1.10;;
17504;SDS011;8870;50.950;11.762;2024-02-23T21:56:55;1.42;;;0.93;;
17504;SDS011;8870;50.950;11.762;2024-02-23T22:07:55;2.50;;;0.93;;
17504;SDS011;8870;50.950;11.762;2024-02-23T22:13:23;1.77;;;1.05;;
17504;SDS011;8870;50.950;11.762;2024-02-23T22:19:00;1.27;;;0.90;;
17504;SDS011;8870;50.950;11.762;2024-02-23T22:24:27;2.42;;;1.08;;
17504;SDS011;8870;50.950;11.762;2024-02-23T22:29:58;2.22;;;1.02;;
17504;SDS011;8870;50.950;11.762;2024-02-23T22:35:34;2.22;;;0.95;;
17504;SDS011;8870;50.950;11.762;2024-02-23T22:40:52;1.95;;;0.90;;
17504;SDS011;8870;50.950;11.762;2024-02-23T22:51:43;2.50;;;1.00;;
17504;SDS011;8870;50.950;11.762;2024-02-23T22:57:16;1.75;;;0.90;;
17504;SDS011;8870;50.950;11.762;2024-02-23T23:02:42;2.22;;;0.90;;
17504;SDS011;8870;50.950;11.762;2024-02-23T23:13:38;3.88;;;0.93;;
17504;SDS011;8870;50.950;11.762;2024-02-23T23:19:11;2.13;;;0.80;;
17504;SDS011;8870;50.950;11.762;2024-02-23T23:24:33;2.13;;;0.90;;
17504;SDS011;8870;50.950;11.762;2024-02-23T23:30:05;2.83;;;0.90;;
17504;SDS011;8870;50.950;11.762;2024-02-23T23:35:24;2.78;;;0.90;;
17504;SDS011;8870;50.950;11.762;2024-02-23T23:40:58;1.92;;;0.88;;
17504;SDS011;8870;50.950;11.762;2024-02-23T23:46:16;3.63;;;1.02;;
17504;SDS011;8870;50.950;11.762;2024-02-23T23:51:47;5.00;;;1.00;;
17504;SDS011;8870;50.950;11.762;2024-02-23T23:57:14;2.05;;;1.10;;
